sensor_id;sensor_type;location;lat;lon;timestamp;P1;durP1;ratioP1;P2;durP2;ratioP2
19883;SDS011;10104;50.732;10.174;2022-09-25T00:00:31;7.83;;;5.50;;
19883;SDS011;10104;50.732;10.174;2022-09-25T00:02:52;6.93;;;5.90;;
19883;SDS011;10104;50.732;10.174;2022-09-25T00:05:14;11.97;;;10.37;;
19883;SDS011;10104;50.732;10.174;2022-09-25T00:07:35;10.77;;;8.93;;
19883;SDS011;10104;50.732;10.174;2022-09-25T00:09:57;15.13;;;8.73;;
19883;SDS011;10104;50.732;10.174;2022-09-25T00:12:18;10.03;;;8.77;;
19883;SDS011;10104;50.732;10.174;2022-09-25T00:14:40;12.30;;;9.03;;
19883;SDS011;10104;50.732;10.174;2022-09-25T00:17:01;10.90;;;8.90;;
19883;SDS011;10104;50.732;10.174;2022-09-25T00:19:23;12.13;;;8.70;;
19883;SDS011;10104;50.732;10.174;2022-09-25T00:22:03;10.90;;;8.57;;
19883;SDS011;10104;50.732;10.174;2022-09-25T00:24:24;13.03;;;8.80;;
19883;SDS011;10104;50.732;10.174;2022-09-25T00:26:46;9.07;;;7.77;;
19883;SDS011;10104;50.732;10.174;2022-09-25T00:29:08;12.47;;;8.70;;
19883;SDS011;10104;50.732;10.174;2022-09-25T00:31:34;10.53;;;8.17;;
19883;SDS011;10104;50.732;10.174;2022-09-25T00:33:56;11.67;;;8.73;;
19883;SDS011;10104;50.732;10.174;2022-09-25T00:36:19;10.57;;;7.77;;
19883;SDS011;10104;50.732;10.174;2022-09-25T00:38:40;11.07;;;7.97;;
19883;SDS011;10104;50.732;10.174;2022-09-25T00:41:05;10.07;;;7.00;;
19883;SDS011;10104;50.732;10.174;2022-09-25T00:43:40;7.30;;;6.30;;
19883;SDS011;10104;50.732;10.174;2022-09-25T00:46:08;6.73;;;6.00;;
19883;SDS011;10104;50.732;10.174;2022-09-25T00:48:33;10.63;;;6.27;;
19883;SDS011;10104;50.732;10.174;2022-09-25T00:50:56;8.00;;;6.53;;
19883;SDS011;10104;50.732;10.174;2022-09-25T00:53:19;9.90;;;7.27;;
19883;SDS011;10104;50.732;10.174;2022-09-25T00:55:46;9.83;;;6.70;;
19883;SDS011;10104;50.732;10.174;2022-09-25T00:58:08;8.63;;;5.77;;
19883;SDS011;10104;50.732;10.174;2022-09-25T01:00:32;6.43;;;5.80;;
19883;SDS011;10104;50.732;10.174;2022-09-25T01:02:53;8.87;;;5.60;;
19883;SDS011;10104;50.732;10.174;2022-09-25T01:05:17;6.77;;;5.70;;
19883;SDS011;10104;50.732;10.174;2022-09-25T01:07:42;8.67;;;6.10;;
19883;SDS011;10104;50.732;10.174;2022-09-25T01:10:06;7.87;;;6.27;;
19883;SDS011;10104;50.732;10.174;2022-09-25T01:12:29;9.77;;;6.20;;
19883;SDS011;10104;50.732;10.174;2022-09-25T01:14:51;7.20;;;6.40;;
19883;SDS011;10104;50.732;10.174;2022-09-25T01:17:15;7.77;;;6.13;;
19883;SDS011;10104;50.732;10.174;2022-09-25T01:22:45;7.23;;;6.50;;
19883;SDS011;10104;50.732;10.174;2022-09-25T01:25:27;7.40;;;6.40;;
19883;SDS011;10104;50.732;10.174;2022-09-25T01:30:44;7.70;;;6.67;;
19883;SDS011;10104;50.732;10.174;2022-09-25T01:33:30;8.47;;;7.00;;
19883;SDS011;10104;50.732;10.174;2022-09-25T01:35:57;6.80;;;6.10;;
19883;SDS011;10104;50.732;10.174;2022-09-25T01:40:58;7.53;;;6.67;;
19883;SDS011;10104;50.732;10.174;2022-09-25T01:43:51;9.63;;;6.17;;
19883;SDS011;10104;50.732;10.174;2022-09-25T01:46:19;8.90;;;6.67;;
19883;SDS011;10104;50.732;10.174;2022-09-25T01:48:45;8.93;;;6.37;;
19883;SDS011;10104;50.732;10.174;2022-09-25T01:51:18;7.40;;;6.60;;
19883;SDS011;10104;50.732;10.174;2022-09-25T01:53:46;6.67;;;5.97;;
19883;SDS011;10104;50.732;10.174;2022-09-25T01:56:13;9.40;;;7.00;;
19883;SDS011;10104;50.732;10.174;2022-09-25T01:58:45;8.30;;;6.33;;
19883;SDS011;10104;50.732;10.174;2022-09-25T02:01:16;8.13;;;6.47;;
19883;SDS011;10104;50.732;10.174;2022-09-25T02:03:47;7.57;;;6.10;;
19883;SDS011;10104;50.732;10.174;2022-09-25T02:06:17;7.67;;;6.07;;
19883;SDS011;10104;50.732;10.174;2022-09-25T02:08:42;9.27;;;6.50;;
19883;SDS011;10104;50.732;10.174;2022-09-25T02:11:09;9.13;;;6.83;;
19883;SDS011;10104;50.732;10.174;2022-09-25T02:13:48;7.57;;;6.10;;
19883;SDS011;10104;50.732;10.174;2022-09-25T02:16:15;9.53;;;7.13;;
19883;SDS011;10104;50.732;10.174;2022-09-25T02:18:39;9.37;;;6.50;;
19883;SDS011;10104;50.732;10.174;2022-09-25T02:26:37;7.83;;;6.50;;
19883;SDS011;10104;50.732;10.174;2022-09-25T02:28:58;8.13;;;6.37;;
19883;SDS011;10104;50.732;10.174;2022-09-25T02:31:25;7.90;;;6.60;;
19883;SDS011;10104;50.732;10.174;2022-09-25T02:33:51;6.97;;;6.10;;
19883;SDS011;10104;50.732;10.174;2022-09-25T02:36:16;10.93;;;6.47;;
19883;SDS011;10104;50.732;10.174;2022-09-25T02:38:44;9.20;;;6.73;;
19883;SDS011;10104;50.732;10.174;2022-09-25T02:41:10;9.03;;;6.80;;
19883;SDS011;10104;50.732;10.174;2022-09-25T02:43:49;10.47;;;6.23;;
19883;SDS011;10104;50.732;10.174;2022-09-25T02:46:20;9.17;;;6.27;;
19883;SDS011;10104;50.732;10.174;2022-09-25T02:54:30;7.20;;;6.00;;
19883;SDS011;10104;50.732;10.174;2022-09-25T02:57:06;7.97;;;6.43;;
19883;SDS011;10104;50.732;10.174;2022-09-25T02:59:33;9.87;;;6.80;;
19883;SDS011;10104;50.732;10.174;2022-09-25T03:02:00;6.90;;;6.20;;
19883;SDS011;10104;50.732;10.174;2022-09-25T03:04:22;7.80;;;6.13;;
19883;SDS011;10104;50.732;10.174;2022-09-25T03:06:46;9.27;;;6.53;;
19883;SDS011;10104;50.732;10.174;2022-09-25T03:09:08;6.73;;;5.93;;
19883;SDS011;10104;50.732;10.174;2022-09-25T03:11:31;10.77;;;6.27;;
19883;SDS011;10104;50.732;10.174;2022-09-25T03:14:03;7.80;;;6.70;;
19883;SDS011;10104;50.732;10.174;2022-09-25T03:16:33;8.33;;;6.90;;
19883;SDS011;10104;50.732;10.174;2022-09-25T03:19:01;11.97;;;6.63;;
19883;SDS011;10104;50.732;10.174;2022-09-25T03:21:23;7.67;;;6.30;;
19883;SDS011;10104;50.732;10.174;2022-09-25T03:23:44;8.83;;;6.47;;
19883;SDS011;10104;50.732;10.174;2022-09-25T03:26:06;7.57;;;6.30;;
19883;SDS011;10104;50.732;10.174;2022-09-25T03:28:27;12.27;;;7.13;;
19883;SDS011;10104;50.732;10.174;2022-09-25T03:33:18;8.00;;;6.30;;
19883;SDS011;10104;50.732;10.174;2022-09-25T03:35:40;7.37;;;6.17;;
19883;SDS011;10104;50.732;10.174;2022-09-25T03:38:01;8.03;;;6.60;;
19883;SDS011;10104;50.732;10.174;2022-09-25T03:40:23;7.77;;;6.97;;
19883;SDS011;10104;50.732;10.174;2022-09-25T03:42:45;9.03;;;6.50;;
19883;SDS011;10104;50.732;10.174;2022-09-25T03:45:07;7.00;;;6.30;;
19883;SDS011;10104;50.732;10.174;2022-09-25T03:47:30;8.13;;;6.07;;
19883;SDS011;10104;50.732;10.174;2022-09-25T03:49:51;9.93;;;7.03;;
19883;SDS011;10104;50.732;10.174;2022-09-25T03:52:13;7.17;;;6.47;;
19883;SDS011;10104;50.732;10.174;2022-09-25T03:54:34;9.50;;;6.23;;
19883;SDS011;10104;50.732;10.174;2022-09-25T03:56:56;7.53;;;6.50;;
19883;SDS011;10104;50.732;10.174;2022-09-25T03:59:17;9.53;;;7.00;;
19883;SDS011;10104;50.732;10.174;2022-09-25T04:01:39;8.37;;;6.10;;
19883;SDS011;10104;50.732;10.174;2022-09-25T04:04:01;7.57;;;6.60;;
19883;SDS011;10104;50.732;10.174;2022-09-25T04:06:24;11.57;;;7.20;;
19883;SDS011;10104;50.732;10.174;2022-09-25T04:08:46;7.73;;;6.90;;
19883;SDS011;10104;50.732;10.174;2022-09-25T04:11:08;12.07;;;7.20;;
19883;SDS011;10104;50.732;10.174;2022-09-25T04:13:33;7.80;;;7.00;;
19883;SDS011;10104;50.732;10.174;2022-09-25T04:15:56;7.00;;;6.30;;
19883;SDS011;10104;50.732;10.174;2022-09-25T04:18:20;8.93;;;6.27;;
19883;SDS011;10104;50.732;10.174;2022-09-25T04:20:42;9.90;;;6.50;;
19883;SDS011;10104;50.732;10.174;2022-09-25T04:23:04;9.70;;;6.93;;
19883;SDS011;10104;50.732;10.174;2022-09-25T04:25:25;10.10;;;7.33;;
19883;SDS011;10104;50.732;10.174;2022-09-25T04:27:47;9.00;;;6.60;;
19883;SDS011;10104;50.732;10.174;2022-09-25T04:30:10;8.93;;;7.00;;
19883;SDS011;10104;50.732;10.174;2022-09-25T04:32:31;9.90;;;7.00;;
19883;SDS011;10104;50.732;10.174;2022-09-25T04:35:11;8.40;;;6.83;;
19883;SDS011;10104;50.732;10.174;2022-09-25T04:37:33;7.40;;;6.50;;
19883;SDS011;10104;50.732;10.174;2022-09-25T04:39:55;8.17;;;6.93;;
19883;SDS011;10104;50.732;10.174;2022-09-25T04:42:17;7.43;;;6.70;;
19883;SDS011;10104;50.732;10.174;2022-09-25T04:44:41;8.07;;;6.30;;
19883;SDS011;10104;50.732;10.174;2022-09-25T04:47:02;7.63;;;6.47;;
19883;SDS011;10104;50.732;10.174;2022-09-25T04:49:24;8.93;;;6.30;;
19883;SDS011;10104;50.732;10.174;2022-09-25T04:51:45;6.73;;;6.13;;
19883;SDS011;10104;50.732;10.174;2022-09-25T04:54:07;9.03;;;6.60;;
19883;SDS011;10104;50.732;10.174;2022-09-25T04:56:28;7.27;;;6.50;;
19883;SDS011;10104;50.732;10.174;2022-09-25T04:58:50;8.23;;;6.50;;
19883;SDS011;10104;50.732;10.174;2022-09-25T05:01:11;9.57;;;6.93;;
19883;SDS011;10104;50.732;10.174;2022-09-25T05:03:33;8.20;;;6.60;;
19883;SDS011;10104;50.732;10.174;2022-09-25T05:05:55;8.77;;;6.23;;
19883;SDS011;10104;50.732;10.174;2022-09-25T05:08:16;8.97;;;6.40;;
19883;SDS011;10104;50.732;10.174;2022-09-25T05:10:38;7.43;;;6.60;;
19883;SDS011;10104;50.732;10.174;2022-09-25T05:13:01;7.50;;;6.53;;
19883;SDS011;10104;50.732;10.174;2022-09-25T05:15:24;8.20;;;6.70;;
19883;SDS011;10104;50.732;10.174;2022-09-25T05:17:46;7.97;;;6.83;;
19883;SDS011;10104;50.732;10.174;2022-09-25T05:20:08;8.60;;;7.50;;
19883;SDS011;10104;50.732;10.174;2022-09-25T05:22:29;8.13;;;6.70;;
19883;SDS011;10104;50.732;10.174;2022-09-25T05:24:51;9.20;;;7.23;;
19883;SDS011;10104;50.732;10.174;2022-09-25T05:27:19;7.93;;;6.90;;
19883;SDS011;10104;50.732;10.174;2022-09-25T05:29:42;8.13;;;6.47;;
19883;SDS011;10104;50.732;10.174;2022-09-25T05:32:03;8.03;;;6.57;;
19883;SDS011;10104;50.732;10.174;2022-09-25T05:34:25;7.97;;;7.17;;
19883;SDS011;10104;50.732;10.174;2022-09-25T05:36:47;14.87;;;7.70;;
19883;SDS011;10104;50.732;10.174;2022-09-25T05:39:08;11.70;;;8.50;;
19883;SDS011;10104;50.732;10.174;2022-09-25T05:41:35;9.13;;;8.17;;
19883;SDS011;10104;50.732;10.174;2022-09-25T05:43:56;8.90;;;8.00;;
19883;SDS011;10104;50.732;10.174;2022-09-25T05:46:19;13.00;;;8.70;;
19883;SDS011;10104;50.732;10.174;2022-09-25T05:48:40;13.20;;;9.83;;
19883;SDS011;10104;50.732;10.174;2022-09-25T05:51:02;14.20;;;10.50;;
19883;SDS011;10104;50.732;10.174;2022-09-25T05:53:24;13.60;;;10.70;;
19883;SDS011;10104;50.732;10.174;2022-09-25T05:55:50;12.30;;;11.00;;
19883;SDS011;10104;50.732;10.174;2022-09-25T05:58:12;12.83;;;10.80;;
19883;SDS011;10104;50.732;10.174;2022-09-25T06:00:34;13.47;;;10.47;;
19883;SDS011;10104;50.732;10.174;2022-09-25T06:02:56;12.20;;;10.87;;
19883;SDS011;10104;50.732;10.174;2022-09-25T06:05:18;15.03;;;11.93;;
19883;SDS011;10104;50.732;10.174;2022-09-25T06:07:39;17.07;;;11.33;;
19883;SDS011;10104;50.732;10.174;2022-09-25T06:10:01;16.77;;;12.07;;
19883;SDS011;10104;50.732;10.174;2022-09-25T06:12:23;16.50;;;10.67;;
19883;SDS011;10104;50.732;10.174;2022-09-25T06:14:45;17.57;;;10.90;;
19883;SDS011;10104;50.732;10.174;2022-09-25T06:17:06;15.73;;;10.77;;
19883;SDS011;10104;50.732;10.174;2022-09-25T06:19:28;14.63;;;10.20;;
19883;SDS011;10104;50.732;10.174;2022-09-25T06:21:50;16.07;;;10.53;;
19883;SDS011;10104;50.732;10.174;2022-09-25T06:24:11;17.50;;;10.73;;
19883;SDS011;10104;50.732;10.174;2022-09-25T06:26:33;12.10;;;10.43;;
19883;SDS011;10104;50.732;10.174;2022-09-25T06:28:55;14.70;;;10.57;;
19883;SDS011;10104;50.732;10.174;2022-09-25T06:31:23;12.87;;;10.50;;
19883;SDS011;10104;50.732;10.174;2022-09-25T06:33:48;13.23;;;11.43;;
19883;SDS011;10104;50.732;10.174;2022-09-25T06:36:10;13.70;;;11.70;;
19883;SDS011;10104;50.732;10.174;2022-09-25T06:38:32;17.43;;;12.27;;
19883;SDS011;10104;50.732;10.174;2022-09-25T06:40:54;16.80;;;13.30;;
19883;SDS011;10104;50.732;10.174;2022-09-25T06:43:20;16.83;;;13.50;;
19883;SDS011;10104;50.732;10.174;2022-09-25T06:45:41;20.73;;;13.77;;
19883;SDS011;10104;50.732;10.174;2022-09-25T06:48:04;18.20;;;14.40;;
19883;SDS011;10104;50.732;10.174;2022-09-25T06:50:30;15.90;;;14.13;;
19883;SDS011;10104;50.732;10.174;2022-09-25T06:52:58;16.87;;;14.90;;
19883;SDS011;10104;50.732;10.174;2022-09-25T06:55:22;17.27;;;14.20;;
19883;SDS011;10104;50.732;10.174;2022-09-25T06:57:44;17.53;;;14.87;;
19883;SDS011;10104;50.732;10.174;2022-09-25T07:00:06;17.80;;;14.23;;
19883;SDS011;10104;50.732;10.174;2022-09-25T07:02:28;16.90;;;14.10;;
19883;SDS011;10104;50.732;10.174;2022-09-25T07:05:08;19.60;;;14.90;;
19883;SDS011;10104;50.732;10.174;2022-09-25T07:07:30;17.77;;;14.53;;
19883;SDS011;10104;50.732;10.174;2022-09-25T07:09:51;15.80;;;14.13;;
19883;SDS011;10104;50.732;10.174;2022-09-25T07:12:13;17.00;;;14.30;;
19883;SDS011;10104;50.732;10.174;2022-09-25T07:14:35;16.07;;;14.40;;
19883;SDS011;10104;50.732;10.174;2022-09-25T07:16:58;20.30;;;15.03;;
19883;SDS011;10104;50.732;10.174;2022-09-25T07:19:20;18.07;;;14.40;;
19883;SDS011;10104;50.732;10.174;2022-09-25T07:21:47;17.03;;;14.80;;
19883;SDS011;10104;50.732;10.174;2022-09-25T07:24:09;16.97;;;15.03;;
19883;SDS011;10104;50.732;10.174;2022-09-25T07:26:31;17.83;;;15.10;;
19883;SDS011;10104;50.732;10.174;2022-09-25T07:28:55;21.10;;;14.47;;
19883;SDS011;10104;50.732;10.174;2022-09-25T07:31:19;16.10;;;14.37;;
19883;SDS011;10104;50.732;10.174;2022-09-25T07:33:46;16.40;;;14.53;;
19883;SDS011;10104;50.732;10.174;2022-09-25T07:36:08;16.63;;;14.00;;
19883;SDS011;10104;50.732;10.174;2022-09-25T07:38:29;21.00;;;14.63;;
19883;SDS011;10104;50.732;10.174;2022-09-25T07:40:51;17.47;;;13.93;;
19883;SDS011;10104;50.732;10.174;2022-09-25T07:43:13;16.07;;;14.33;;
19883;SDS011;10104;50.732;10.174;2022-09-25T07:45:35;16.60;;;14.40;;
19883;SDS011;10104;50.732;10.174;2022-09-25T07:47:58;15.73;;;14.13;;
19883;SDS011;10104;50.732;10.174;2022-09-25T07:50:20;15.98;;;14.27;;
19883;SDS011;10104;50.732;10.174;2022-09-25T07:52:42;17.77;;;14.93;;
19883;SDS011;10104;50.732;10.174;2022-09-25T07:55:04;17.77;;;15.35;;
19883;SDS011;10104;50.732;10.174;2022-09-25T07:57:26;16.60;;;14.30;;
19883;SDS011;10104;50.732;10.174;2022-09-25T07:59:48;22.30;;;13.93;;
19883;SDS011;10104;50.732;10.174;2022-09-25T08:02:10;17.17;;;14.88;;
19883;SDS011;10104;50.732;10.174;2022-09-25T08:04:32;17.88;;;15.50;;
19883;SDS011;10104;50.732;10.174;2022-09-25T08:06:53;25.20;;;14.70;;
19883;SDS011;10104;50.732;10.174;2022-09-25T08:09:15;16.85;;;15.15;;
19883;SDS011;10104;50.732;10.174;2022-09-25T08:11:36;20.08;;;15.50;;
19883;SDS011;10104;50.732;10.174;2022-09-25T08:13:58;18.60;;;16.15;;
19883;SDS011;10104;50.732;10.174;2022-09-25T08:16:19;17.15;;;14.95;;
19883;SDS011;10104;50.732;10.174;2022-09-25T08:18:44;21.73;;;16.40;;
19883;SDS011;10104;50.732;10.174;2022-09-25T08:21:07;19.02;;;16.20;;
19883;SDS011;10104;50.732;10.174;2022-09-25T08:23:30;19.20;;;14.98;;
19883;SDS011;10104;50.732;10.174;2022-09-25T08:25:52;17.35;;;14.30;;
19883;SDS011;10104;50.732;10.174;2022-09-25T08:28:14;16.45;;;14.73;;
19883;SDS011;10104;50.732;10.174;2022-09-25T08:30:36;16.83;;;14.63;;
19883;SDS011;10104;50.732;10.174;2022-09-25T08:32:58;16.40;;;14.70;;
19883;SDS011;10104;50.732;10.174;2022-09-25T08:35:20;16.63;;;14.82;;
19883;SDS011;10104;50.732;10.174;2022-09-25T08:37:42;14.43;;;12.93;;
19883;SDS011;10104;50.732;10.174;2022-09-25T08:40:05;16.55;;;13.90;;
19883;SDS011;10104;50.732;10.174;2022-09-25T08:42:29;16.85;;;13.77;;
19883;SDS011;10104;50.732;10.174;2022-09-25T08:44:55;16.42;;;13.98;;
19883;SDS011;10104;50.732;10.174;2022-09-25T08:47:42;15.52;;;13.93;;
19883;SDS011;10104;50.732;10.174;2022-09-25T08:50:23;14.32;;;12.80;;
19883;SDS011;10104;50.732;10.174;2022-09-25T08:52:46;17.63;;;14.55;;
19883;SDS011;10104;50.732;10.174;2022-09-25T08:55:27;15.38;;;13.80;;
19883;SDS011;10104;50.732;10.174;2022-09-25T08:58:10;20.45;;;15.13;;
19883;SDS011;10104;50.732;10.174;2022-09-25T09:00:35;15.50;;;13.75;;
19883;SDS011;10104;50.732;10.174;2022-09-25T09:02:57;18.70;;;15.45;;
19883;SDS011;10104;50.732;10.174;2022-09-25T09:05:29;16.05;;;14.32;;
19883;SDS011;10104;50.732;10.174;2022-09-25T09:08:00;16.00;;;13.38;;
19883;SDS011;10104;50.732;10.174;2022-09-25T09:18:21;18.15;;;15.45;;
19883;SDS011;10104;50.732;10.174;2022-09-25T09:20:49;15.75;;;14.15;;
19883;SDS011;10104;50.732;10.174;2022-09-25T09:23:18;17.38;;;14.70;;
19883;SDS011;10104;50.732;10.174;2022-09-25T09:25:48;16.55;;;14.80;;
19883;SDS011;10104;50.732;10.174;2022-09-25T09:28:39;16.40;;;14.60;;
19883;SDS011;10104;50.732;10.174;2022-09-25T09:34:07;15.95;;;13.93;;
19883;SDS011;10104;50.732;10.174;2022-09-25T09:40:06;14.27;;;12.70;;
19883;SDS011;10104;50.732;10.174;2022-09-25T09:42:36;14.25;;;12.52;;
19883;SDS011;10104;50.732;10.174;2022-09-25T09:45:17;15.80;;;13.80;;
19883;SDS011;10104;50.732;10.174;2022-09-25T09:47:56;14.35;;;12.80;;
19883;SDS011;10104;50.732;10.174;2022-09-25T09:53:19;12.93;;;11.57;;
19883;SDS011;10104;50.732;10.174;2022-09-25T09:55:58;15.63;;;12.68;;
19883;SDS011;10104;50.732;10.174;2022-09-25T09:58:37;13.90;;;12.50;;
19883;SDS011;10104;50.732;10.174;2022-09-25T10:01:05;15.32;;;12.70;;
19883;SDS011;10104;50.732;10.174;2022-09-25T10:03:48;15.10;;;12.07;;
19883;SDS011;10104;50.732;10.174;2022-09-25T10:06:14;14.82;;;12.20;;
19883;SDS011;10104;50.732;10.174;2022-09-25T10:08:42;14.02;;;12.50;;
19883;SDS011;10104;50.732;10.174;2022-09-25T10:11:05;12.60;;;11.27;;
19883;SDS011;10104;50.732;10.174;2022-09-25T10:13:37;12.85;;;11.45;;
19883;SDS011;10104;50.732;10.174;2022-09-25T10:16:09;14.93;;;12.65;;
19883;SDS011;10104;50.732;10.174;2022-09-25T10:18:39;12.48;;;11.25;;
19883;SDS011;10104;50.732;10.174;2022-09-25T10:21:13;13.48;;;12.15;;
19883;SDS011;10104;50.732;10.174;2022-09-25T10:23:39;12.40;;;11.10;;
19883;SDS011;10104;50.732;10.174;2022-09-25T10:26:22;12.95;;;10.98;;
19883;SDS011;10104;50.732;10.174;2022-09-25T10:28:49;11.38;;;10.27;;
19883;SDS011;10104;50.732;10.174;2022-09-25T10:31:11;13.25;;;10.70;;
19883;SDS011;10104;50.732;10.174;2022-09-25T10:33:33;13.60;;;11.57;;
19883;SDS011;10104;50.732;10.174;2022-09-25T10:35:54;12.73;;;11.30;;
19883;SDS011;10104;50.732;10.174;2022-09-25T10:41:04;10.80;;;9.43;;
19883;SDS011;10104;50.732;10.174;2022-09-25T10:43:34;11.50;;;10.27;;
19883;SDS011;10104;50.732;10.174;2022-09-25T10:46:12;11.50;;;10.30;;
19883;SDS011;10104;50.732;10.174;2022-09-25T10:48:36;11.77;;;10.57;;
19883;SDS011;10104;50.732;10.174;2022-09-25T10:51:17;11.70;;;10.32;;
19883;SDS011;10104;50.732;10.174;2022-09-25T10:53:40;11.43;;;10.15;;
19883;SDS011;10104;50.732;10.174;2022-09-25T10:56:05;11.65;;;10.48;;
19883;SDS011;10104;50.732;10.174;2022-09-25T10:58:34;11.57;;;9.70;;
19883;SDS011;10104;50.732;10.174;2022-09-25T11:00:58;10.55;;;9.45;;
19883;SDS011;10104;50.732;10.174;2022-09-25T11:03:26;12.55;;;10.60;;
19883;SDS011;10104;50.732;10.174;2022-09-25T11:08:32;12.63;;;11.00;;
19883;SDS011;10104;50.732;10.174;2022-09-25T11:10:58;11.00;;;9.65;;
19883;SDS011;10104;50.732;10.174;2022-09-25T11:13:25;10.45;;;9.35;;
19883;SDS011;10104;50.732;10.174;2022-09-25T11:15:50;10.32;;;9.32;;
19883;SDS011;10104;50.732;10.174;2022-09-25T11:18:30;10.82;;;8.70;;
19883;SDS011;10104;50.732;10.174;2022-09-25T11:20:59;10.13;;;9.07;;
19883;SDS011;10104;50.732;10.174;2022-09-25T11:26:16;11.02;;;9.63;;
19883;SDS011;10104;50.732;10.174;2022-09-25T11:28:56;10.45;;;9.45;;
19883;SDS011;10104;50.732;10.174;2022-09-25T11:31:29;9.63;;;8.63;;
19883;SDS011;10104;50.732;10.174;2022-09-25T11:34:02;10.05;;;9.05;;
19883;SDS011;10104;50.732;10.174;2022-09-25T11:36:48;10.52;;;9.43;;
19883;SDS011;10104;50.732;10.174;2022-09-25T11:42:16;9.73;;;8.75;;
19883;SDS011;10104;50.732;10.174;2022-09-25T11:44:48;9.07;;;8.18;;
19883;SDS011;10104;50.732;10.174;2022-09-25T11:50:10;9.30;;;8.40;;
19883;SDS011;10104;50.732;10.174;2022-09-25T11:55:29;9.43;;;8.50;;
19883;SDS011;10104;50.732;10.174;2022-09-25T11:58:25;9.18;;;8.02;;
19883;SDS011;10104;50.732;10.174;2022-09-25T12:01:07;8.73;;;7.82;;
19883;SDS011;10104;50.732;10.174;2022-09-25T12:03:51;8.57;;;7.68;;
19883;SDS011;10104;50.732;10.174;2022-09-25T12:06:30;9.32;;;8.32;;
19883;SDS011;10104;50.732;10.174;2022-09-25T12:12:04;9.45;;;7.95;;
19883;SDS011;10104;50.732;10.174;2022-09-25T12:17:09;9.13;;;8.23;;
19883;SDS011;10104;50.732;10.174;2022-09-25T12:19:43;9.02;;;8.13;;
19883;SDS011;10104;50.732;10.174;2022-09-25T12:22:38;9.45;;;7.75;;
19883;SDS011;10104;50.732;10.174;2022-09-25T12:25:13;8.47;;;7.67;;
19883;SDS011;10104;50.732;10.174;2022-09-25T12:30:50;11.30;;;10.10;;
19883;SDS011;10104;50.732;10.174;2022-09-25T12:33:34;11.30;;;9.40;;
19883;SDS011;10104;50.732;10.174;2022-09-25T12:36:35;10.80;;;9.57;;
19883;SDS011;10104;50.732;10.174;2022-09-25T12:44:48;11.97;;;10.67;;
19883;SDS011;10104;50.732;10.174;2022-09-25T12:49:55;12.15;;;10.80;;
19883;SDS011;10104;50.732;10.174;2022-09-25T12:52:23;14.30;;;10.00;;
19883;SDS011;10104;50.732;10.174;2022-09-25T12:55:01;10.07;;;9.03;;
19883;SDS011;10104;50.732;10.174;2022-09-25T13:00:05;10.45;;;9.45;;
19883;SDS011;10104;50.732;10.174;2022-09-25T13:02:39;10.35;;;8.82;;
19883;SDS011;10104;50.732;10.174;2022-09-25T13:05:18;9.45;;;7.95;;
19883;SDS011;10104;50.732;10.174;2022-09-25T13:13:38;7.90;;;7.15;;
19883;SDS011;10104;50.732;10.174;2022-09-25T13:16:05;10.15;;;7.00;;
19883;SDS011;10104;50.732;10.174;2022-09-25T13:18:27;7.38;;;6.65;;
19883;SDS011;10104;50.732;10.174;2022-09-25T13:20:54;8.35;;;6.25;;
19883;SDS011;10104;50.732;10.174;2022-09-25T13:25:56;9.00;;;6.07;;
19883;SDS011;10104;50.732;10.174;2022-09-25T13:28:22;8.90;;;6.60;;
19883;SDS011;10104;50.732;10.174;2022-09-25T13:31:06;7.00;;;6.30;;
19883;SDS011;10104;50.732;10.174;2022-09-25T13:33:40;7.30;;;5.77;;
19883;SDS011;10104;50.732;10.174;2022-09-25T13:36:06;6.25;;;5.65;;
19883;SDS011;10104;50.732;10.174;2022-09-25T13:38:29;7.45;;;6.18;;
19883;SDS011;10104;50.732;10.174;2022-09-25T13:41:12;7.32;;;5.97;;
19883;SDS011;10104;50.732;10.174;2022-09-25T13:43:34;9.23;;;6.53;;
19883;SDS011;10104;50.732;10.174;2022-09-25T13:46:44;6.80;;;6.10;;
19883;SDS011;10104;50.732;10.174;2022-09-25T13:48:42;8.05;;;5.97;;
19883;SDS011;10104;50.732;10.174;2022-09-25T13:56:24;7.97;;;5.90;;
19883;SDS011;10104;50.732;10.174;2022-09-25T14:01:43;6.47;;;5.33;;
19883;SDS011;10104;50.732;10.174;2022-09-25T14:04:07;6.57;;;5.65;;
19883;SDS011;10104;50.732;10.174;2022-09-25T14:06:31;7.50;;;5.30;;
19883;SDS011;10104;50.732;10.174;2022-09-25T14:09:05;7.23;;;5.20;;
19883;SDS011;10104;50.732;10.174;2022-09-25T14:11:31;5.10;;;4.40;;
19883;SDS011;10104;50.732;10.174;2022-09-25T14:13:55;4.80;;;3.47;;
19883;SDS011;10104;50.732;10.174;2022-09-25T14:16:29;6.07;;;3.40;;
19883;SDS011;10104;50.732;10.174;2022-09-25T14:18:57;6.47;;;3.40;;
19883;SDS011;10104;50.732;10.174;2022-09-25T14:21:21;6.33;;;3.20;;
19883;SDS011;10104;50.732;10.174;2022-09-25T14:23:50;5.60;;;3.37;;
19883;SDS011;10104;50.732;10.174;2022-09-25T14:26:20;6.23;;;2.80;;
19883;SDS011;10104;50.732;10.174;2022-09-25T14:28:45;4.77;;;2.57;;
19883;SDS011;10104;50.732;10.174;2022-09-25T14:42:26;3.63;;;2.90;;
19883;SDS011;10104;50.732;10.174;2022-09-25T14:45:14;5.17;;;2.70;;
19883;SDS011;10104;50.732;10.174;2022-09-25T14:47:40;8.03;;;2.93;;
19883;SDS011;10104;50.732;10.174;2022-09-25T14:50:05;6.70;;;3.50;;
19883;SDS011;10104;50.732;10.174;2022-09-25T14:52:27;4.37;;;2.80;;
19883;SDS011;10104;50.732;10.174;2022-09-25T14:54:53;7.87;;;4.40;;
19883;SDS011;10104;50.732;10.174;2022-09-25T14:57:17;4.63;;;3.10;;
19883;SDS011;10104;50.732;10.174;2022-09-25T14:59:47;5.37;;;2.97;;
19883;SDS011;10104;50.732;10.174;2022-09-25T15:04:38;6.60;;;3.13;;
19883;SDS011;10104;50.732;10.174;2022-09-25T15:07:01;4.27;;;3.10;;
19883;SDS011;10104;50.732;10.174;2022-09-25T15:09:26;4.43;;;2.77;;
19883;SDS011;10104;50.732;10.174;2022-09-25T15:11:52;4.47;;;2.60;;
19883;SDS011;10104;50.732;10.174;2022-09-25T15:14:15;7.13;;;3.20;;
19883;SDS011;10104;50.732;10.174;2022-09-25T15:16:40;6.83;;;2.83;;
19883;SDS011;10104;50.732;10.174;2022-09-25T15:19:23;7.53;;;3.03;;
19883;SDS011;10104;50.732;10.174;2022-09-25T15:21:50;6.37;;;2.70;;
19883;SDS011;10104;50.732;10.174;2022-09-25T15:24:13;8.60;;;2.77;;
19883;SDS011;10104;50.732;10.174;2022-09-25T15:26:39;6.83;;;3.13;;
19883;SDS011;10104;50.732;10.174;2022-09-25T15:29:16;6.40;;;2.90;;
19883;SDS011;10104;50.732;10.174;2022-09-25T15:31:41;7.17;;;3.20;;
19883;SDS011;10104;50.732;10.174;2022-09-25T15:34:07;6.67;;;3.20;;
19883;SDS011;10104;50.732;10.174;2022-09-25T15:36:31;6.50;;;3.17;;
19883;SDS011;10104;50.732;10.174;2022-09-25T15:38:58;7.00;;;3.33;;
19883;SDS011;10104;50.732;10.174;2022-09-25T15:41:23;4.47;;;3.40;;
19883;SDS011;10104;50.732;10.174;2022-09-25T15:43:44;7.63;;;4.10;;
19883;SDS011;10104;50.732;10.174;2022-09-25T15:48:30;5.30;;;3.43;;
19883;SDS011;10104;50.732;10.174;2022-09-25T15:50:53;6.13;;;3.53;;
19883;SDS011;10104;50.732;10.174;2022-09-25T15:53:17;7.67;;;3.33;;
19883;SDS011;10104;50.732;10.174;2022-09-25T15:55:42;5.67;;;3.53;;
19883;SDS011;10104;50.732;10.174;2022-09-25T15:58:05;7.13;;;3.37;;
19883;SDS011;10104;50.732;10.174;2022-09-25T16:00:32;8.27;;;4.17;;
19883;SDS011;10104;50.732;10.174;2022-09-25T16:05:52;7.67;;;3.87;;
19883;SDS011;10104;50.732;10.174;2022-09-25T16:08:32;10.10;;;4.07;;
19883;SDS011;10104;50.732;10.174;2022-09-25T16:13:39;11.87;;;6.97;;